CDT,Max TemperatureF,Mean TemperatureF,Min TemperatureF,Max Dew PointF,MeanDew PointF,Min DewpointF,Max Humidity, Mean Humidity, Min Humidity, Max Sea Level PressureIn, Mean Sea Level PressureIn, Min Sea Level PressureIn, Max VisibilityMiles, Mean VisibilityMiles, Min VisibilityMiles, Max Wind SpeedMPH, Mean Wind SpeedMPH, Max Gust SpeedMPH,PrecipitationIn, CloudCover, Events, WindDirDegrees
2012-10-1,82,71,59,57,54,48,93,62,31,29.83,29.79,29.76,10,10,7,21,9,25,0.00,1,,324
2012-10-2,78,69,60,58,54,48,84,61,38,29.96,29.91,29.83,10,10,10,14,6,16,0.00,1,,2
2012-10-3,83,71,58,57,55,51,93,64,34,30.06,30.01,29.96,10,10,9,12,6,15,0.00,0,,160
2012-10-4,86,74,61,64,60,57,97,69,40,30.17,30.11,30.06,10,10,7,17,8,24,0.00,1,,152
2012-10-5,87,74,61,69,64,54,87,68,48,30.12,30.06,29.97,10,10,8,17,9,22,0.00,3,,194
2012-10-6,61,55,49,55,48,39,86,75,63,30.22,30.13,30.06,10,10,4,17,11,23,0.01,8,,32
2012-10-7,55,52,48,46,40,37,93,76,59,30.29,30.24,30.19,10,10,5,16,7,23,0.04,8,Rain,20
2012-10-8,66,56,46,47,44,39,93,68,43,30.28,30.19,30.11,10,10,6,10,4,14,0.00,2,,97
2012-10-9,76,63,49,64,56,46,89,75,61,30.11,30.02,29.91,10,10,9,20,8,24,0.00,6,,164
2012-10-10,84,75,66,69,65,61,93,76,58,30.14,30.11,30.07,10,8,6,16,8,20,0.00,5,,144
2012-10-11,86,77,67,68,66,63,97,76,55,30.21,30.15,30.10,10,8,4,15,9,20,0.00,6,,148
2012-10-12,85,77,69,68,67,64,97,76,55,30.21,30.16,30.11,10,8,3,14,7,16,0.00,3,,166
2012-10-13,88,79,70,70,67,63,97,71,45,30.11,30.03,29.88,10,9,6,30,15,36,T,4,Rain-Thunderstorm,182
2012-10-14,83,73,63,72,66,51,97,66,34,30.08,29.99,29.90,10,8,1,17,7,24,0.99,4,Rain-Thunderstorm,251
2012-10-15,81,69,56,57,51,40,93,58,23,30.11,30.05,29.99,10,10,7,9,2,14,0.00,0,,41
2012-10-16,68,62,56,59,55,51,97,78,58,30.00,29.87,29.74,10,10,9,16,9,21,0.00,1,,177
2012-10-17,86,74,62,67,62,54,93,71,49,29.76,29.69,29.57,10,10,9,26,12,35,0.00,5,,207
2012-10-18,77,64,50,53,38,25,67,42,16,29.99,29.92,29.78,10,10,10,14,5,20,0.00,0,,357
2012-10-19,76,61,46,45,37,26,86,51,16,30.02,29.96,29.91,10,10,8,17,6,23,0.00,0,,255
2012-10-20,83,67,50,60,52,41,77,58,39,29.95,29.88,29.81,10,10,10,20,11,25,0.00,0,,179
2012-10-21,87,78,69,70,66,62,84,67,50,29.97,29.91,29.84,10,10,9,23,14,29,0.00,4,,177
2012-10-22,84,78,71,68,67,65,84,71,58,30.05,29.99,29.95,10,10,10,18,11,23,0.00,5,,173
2012-10-23,83,75,66,66,64,61,93,70,47,30.04,29.98,29.93,10,9,6,18,9,22,0.00,3,,176
2012-10-24,84,75,66,67,65,62,93,72,51,30.05,29.97,29.89,10,9,5,16,10,22,0.00,4,,166
2012-10-25,85,71,56,70,64,48,90,69,48,30.03,29.92,29.86,10,10,9,21,12,28,0.00,5,,207
2012-10-26,56,51,45,47,44,36,93,79,65,30.28,30.17,30.05,10,7,1,18,10,24,1.07,7,Rain-Thunderstorm,358
2012-10-27,59,49,38,37,34,31,85,61,36,30.32,30.23,30.15,10,10,10,15,6,20,0.00,0,,352
2012-10-28,63,50,37,37,33,26,85,55,25,30.29,30.23,30.19,10,10,9,13,4,17,0.00,0,,359
2012-10-29,67,52,37,40,35,28,85,55,24,30.32,30.24,30.16,10,10,8,8,1,9,0.00,0,,92
2012-10-30,72,57,42,47,41,37,89,60,31,30.15,30.06,29.98,10,9,3,13,6,16,0.00,0,,193
2012-10-31,81,66,50,55,51,45,86,59,32,30.02,29.99,29.97,10,9,2,12,5,17,0.00,0,,239